Terminal Aerodrome Forecast
Issued by NWS

Home | Current Version | Previous Version | Text Only | Print | Product List | Glossary On
Versions: 1 2 3 4 5 6 7 8 9 10 11 12 13 14 15 16 17 18 19 20 21 22 23 24 25 26 27 28 29 30 31 32
000
FTUS45 KBOU 181135
TAFAPA
TAF
KAPA 181135Z 1812/1912 18005KT P6SM SCT050 SCT140
     FM181500 VRB05KT P6SM SCT070 BKN140
     FM182200 10005KT P6SM BKN060 OVC100
     FM190500 20007KT P6SM SCT080 SCT140=

USA.gov is the U.S. government's official web portal to all federal, state and local government web resources and services.